MTO Blagnac (VFR) : visi 10km, tempé 13/, QNH1016 (LFMP Q1018, LFBZ Q1016)

Préparer un vol

un pilote averti en vaut deux !

Carte d'approche à vue : aérodrome de Muret (LFBR)

Jour/nuit à Toulouse

Météo France

Cartes, prévisions météo aéronautiques officielles

Windy

Visualisation météo avancée

NOTAM

Recherche route étroite

SUP AIP

Complément à l'information aéronautique

Accueil

Notamment à l'aide des outils ci-dessus, la préparation d'un vol consiste à rassembler les éléments qui permettront de connaître ses conditions en 4 dimensions.
Ces sources alimentent l'élément le plus important d'un vol : la prise de décision, qui mènera au maintien, la modification ou l'annulation d'un vol.

Cette information se trouve sur les cartes de navigation, les cartes de prévision météo, et autres publications aéronautiques.
Concernant spécifiquement l'aérodrome de Muret, l'information disponible au jour le jour consiste en ce qui suit :

  • Messages d'observation et de prévision météo : METAR à Muret, TAF à Blagnac
  • Messages d'information d'aérodrome à Muret : les NOtices TO AirMen (NOTAM)
  • L'éphéméride : nécessaire pour séparer le vol de jour du vol de nuit, les jour et nuit aéronautiques sont situés, respectivement, 30 minutes avant le lever et 30 minutes après le coucher de soleil.

Ces informations, ainsi que la carte d'approche à vue sur l'aérodrome de Muret, sont disponibles ci-contre.

METAR / TAF Muret et Blagnac

LFBR - MURET LHERM

METAR LFBR 241900Z AUTO VRB02KT CAVOK 12/11 Q1017=

LFBO - TOULOUSE BLAGNAC

METAR LFBO 242000Z AUTO 15008KT CAVOK 13/11 Q1016 NOSIG=

TAF LFBO 241700Z 2418/2524 15005KT CAVOK BECMG 2500/2502 28012KT BKN008 TEMPO 2502/2509 3000 RA BKN005 BECMG 2509/2512 30015G25KT SCT020 BECMG 2516/2518 30011KT=


Source : Navigeo

NOTAM Muret


LFFA-D5099/17
Q) LFBB/QSTAH/IV/ BO/ A/000/999/4327N00116E005
A) LFBR MURET LHERM
B) 2017 Nov 06 08:00 C) 2017 Dec 23 19:00
E) HORAIRE CONTROLE D AERODROME (LF-R81):
LUNDI AU SAMEDI : 0800-SS+30 (SAUF JOUR FERIE)
EXTENSION POSSIBLE DU LUNDI AU VENDREDI JUSQU A 19H SUR PPR LE JOUR M
EME AVANT 15H
EXTENSION POSSIBLE LE MARDI JUSQU A 23HOO SUR PPR LE JOUR MEME AVANT
15 H
DIMANCHE INDSIPONIBLE


LFFA-D5294/17
Q) LFBB/QLPAS/IV/ BO/ A/000/999/4327N00116E005
A) LFBR MURET LHERM
B) 2017 Nov 15 08:50 C) 2018 Jan 16 17:00
E) PAPI RWY 12 HORS SERVICE.


LFFA-W0865/17
Q) LFBB/QWULW/IV/ BO/AW/000/003/4326N00116E006
A) LFBR MURET LHERM
B) 2017 Apr 24 00:00 C) 2017 Nov 30 23:59
E) ACTIVITE DRONE DANS LF-R81 MURET
RDL 105/3.1NM ARP LFBR
PSN : 432611N 0011959E
ACTIVITE POSSIBLE UNIQUEMENT DURANT HORAIRES ATS MURET
F) SFC
G) 330FT AGL
Source : Navigeo